Time;durP1;ratioP1;P1;durP2;ratioP2;P2;SDS_P1;SDS_P2;PMS_P1;PMS_P2;Temp;Humidity;BMP_temperature;BMP_pressure;BME280_temperature;BME280_humidity;BME280_pressure;Samples;Min_cycle;Max_cycle;Signal;HPM_P1;HPM_P2
2022/10/08 00:02:14;;;;;;;8.20;6.78;;;18.10;96.70;;;;;;5080073;28;20639;-82
2022/10/08 00:04:43;;;;;;;10.70;8.35;;;18.10;96.70;;;;;;5066699;28;20036;-82
2022/10/08 00:07:11;;;;;;;11.40;8.07;;;18.10;96.70;;;;;;5083780;28;20540;-81
2022/10/08 00:09:40;;;;;;;12.23;7.88;;;18.00;96.70;;;;;;5069411;28;20044;-80
2022/10/08 00:12:08;;;;;;;12.23;9.05;;;18.00;96.70;;;;;;5069278;28;20058;-81
2022/10/08 00:14:39;;;;;;;10.38;7.55;;;18.10;96.70;;;;;;5080860;28;20040;-81
2022/10/08 00:17:09;;;;;;;12.73;7.63;;;18.10;96.70;;;;;;5076820;28;20331;-81
2022/10/08 00:19:37;;;;;;;12.82;7.97;;;18.10;96.70;;;;;;5087461;28;20229;-81
2022/10/08 00:22:06;;;;;;;10.75;7.85;;;18.10;96.70;;;;;;5068067;28;20121;-81
2022/10/08 00:24:38;;;;;;;13.02;7.57;;;18.10;96.70;;;;;;5082470;28;20043;-81
2022/10/08 00:27:07;;;;;;;11.60;8.25;;;18.00;96.70;;;;;;5068163;28;20557;-80
2022/10/08 00:29:37;;;;;;;11.35;8.10;;;18.00;96.70;;;;;;5083990;28;20075;-81
2022/10/08 00:32:05;;;;;;;10.63;7.68;;;17.90;96.70;;;;;;5086637;28;20070;-81
2022/10/08 00:34:36;;;;;;;10.73;7.20;;;17.90;96.70;;;;;;5085344;28;20635;-80
2022/10/08 00:37:04;;;;;;;11.60;7.97;;;17.90;96.70;;;;;;5084968;28;20551;-81
2022/10/08 00:39:33;;;;;;;8.32;6.68;;;17.90;96.70;;;;;;5087621;28;20105;-80
2022/10/08 00:42:02;;;;;;;13.85;8.55;;;17.90;96.70;;;;;;5084846;28;20047;-80
2022/10/08 00:44:53;;;;;;;9.77;7.28;;;17.90;96.70;;;;;;5085868;28;20074;-80
2022/10/08 00:47:37;;;;;;;9.68;7.05;;;17.90;96.70;;;;;;5084914;28;20056;-81
2022/10/08 00:50:11;;;;;;;10.38;6.88;;;17.90;96.70;;;;;;5081727;28;20047;-81
2022/10/08 00:52:43;;;;;;;10.13;6.55;;;17.80;96.70;;;;;;5085037;28;20044;-81
2022/10/08 00:55:15;;;;;;;9.80;6.70;;;17.80;96.70;;;;;;5067118;28;20114;-81
2022/10/08 00:57:44;;;;;;;8.70;6.18;;;17.70;96.70;;;;;;5082386;28;20101;-81
2022/10/08 01:00:16;;;;;;;12.40;7.03;;;17.70;96.70;;;;;;5067515;28;20047;-80
2022/10/08 01:02:45;;;;;;;10.60;6.00;;;17.70;96.70;;;;;;5085783;28;20040;-79
2022/10/08 01:05:18;;;;;;;9.20;5.78;;;17.70;96.70;;;;;;5094782;28;20532;-80
2022/10/08 01:07:53;;;;;;;9.40;6.28;;;17.60;96.70;;;;;;5084812;28;20513;-81
2022/10/08 01:10:30;;;;;;;6.97;5.63;;;17.60;96.70;;;;;;5060049;28;20413;-81
2022/10/08 01:13:16;;;;;;;7.95;5.32;;;17.70;96.70;;;;;;5077743;28;20045;-80
2022/10/08 01:15:50;;;;;;;6.70;5.15;;;17.70;96.70;;;;;;5083118;28;20139;-80
2022/10/08 01:18:28;;;;;;;6.85;5.55;;;17.70;96.70;;;;;;5083921;28;20089;-79
2022/10/08 01:21:08;;;;;;;7.00;4.68;;;17.70;96.70;;;;;;5085342;28;20048;-80
2022/10/08 01:24:05;;;;;;;6.70;4.70;;;17.60;96.70;;;;;;5078390;28;20052;-80
2022/10/08 01:26:50;;;;;;;6.90;4.95;;;17.60;96.70;;;;;;5079481;28;20056;-80
2022/10/08 01:29:24;;;;;;;8.82;4.80;;;17.60;96.70;;;;;;5085076;28;20090;-80
2022/10/08 01:31:56;;;;;;;5.90;5.28;;;17.50;96.70;;;;;;5079998;28;20051;-81
2022/10/08 01:34:30;;;;;;;8.10;5.18;;;17.40;96.70;;;;;;5083831;28;20044;-80
2022/10/08 01:37:07;;;;;;;10.50;5.00;;;17.40;96.70;;;;;;5084400;28;20044;-81
2022/10/08 01:39:37;;;;;;;5.93;4.93;;;17.40;96.70;;;;;;5083733;28;20051;-80
2022/10/08 01:42:07;;;;;;;6.15;4.78;;;17.40;96.70;;;;;;5084583;28;20050;-80
2022/10/08 01:44:40;;;;;;;9.88;5.18;;;17.40;96.70;;;;;;5084067;28;20052;-80
2022/10/08 01:47:12;;;;;;;5.90;5.13;;;17.40;96.70;;;;;;5067511;28;20052;-80
2022/10/08 01:49:45;;;;;;;7.60;5.32;;;17.30;96.70;;;;;;5099514;28;20044;-80
2022/10/08 01:52:19;;;;;;;8.40;5.50;;;17.30;96.70;;;;;;5085410;28;20051;-81
2022/10/08 01:54:50;;;;;;;7.80;5.63;;;17.30;96.70;;;;;;5075377;28;20068;-80
2022/10/08 01:57:20;;;;;;;8.23;5.72;;;17.30;96.70;;;;;;5077643;28;20075;-80
2022/10/08 01:59:56;;;;;;;6.75;5.30;;;17.30;96.70;;;;;;5067630;28;20497;-81
2022/10/08 02:02:25;;;;;;;7.00;5.68;;;17.30;96.70;;;;;;5082482;28;20052;-81
2022/10/08 02:04:55;;;;;;;7.25;5.57;;;17.20;96.70;;;;;;5082069;28;20033;-80
2022/10/08 02:07:30;;;;;;;6.60;5.57;;;17.20;96.70;;;;;;5082786;28;20044;-80
2022/10/08 02:10:05;;;;;;;7.20;5.95;;;17.10;96.70;;;;;;5083288;28;20058;-80
2022/10/08 02:12:34;;;;;;;9.07;6.07;;;17.10;96.70;;;;;;5083851;28;20047;-80
2022/10/08 02:15:06;;;;;;;7.68;5.35;;;17.20;96.70;;;;;;5084127;28;20036;-80
2022/10/08 02:17:41;;;;;;;7.47;5.82;;;17.10;96.70;;;;;;5078628;28;20064;-80
2022/10/08 02:20:17;;;;;;;8.07;5.60;;;17.20;96.70;;;;;;5084731;28;20044;-80
2022/10/08 02:22:57;;;;;;;6.72;5.03;;;17.10;96.70;;;;;;5063115;28;20418;-81
2022/10/08 02:25:32;;;;;;;6.00;5.03;;;17.10;96.70;;;;;;5082873;28;20602;-79
2022/10/08 02:28:08;;;;;;;8.55;5.07;;;17.10;96.70;;;;;;5083180;28;20048;-80
2022/10/08 02:30:45;;;;;;;7.55;5.25;;;17.20;96.70;;;;;;5081376;28;20055;-80
2022/10/08 02:33:19;;;;;;;6.28;5.07;;;17.10;96.70;;;;;;5056814;28;20565;-79
2022/10/08 02:35:50;;;;;;;8.20;5.43;;;17.10;96.70;;;;;;5083368;28;20058;-80
2022/10/08 02:38:23;;;;;;;7.82;4.85;;;17.00;96.70;;;;;;5096794;28;20060;-80
2022/10/08 02:40:57;;;;;;;8.40;4.70;;;17.00;96.70;;;;;;5084137;28;20040;-80
2022/10/08 02:43:30;;;;;;;7.10;4.78;;;17.00;96.70;;;;;;5079182;28;20524;-81
2022/10/08 02:46:06;;;;;;;7.93;4.85;;;16.90;96.70;;;;;;5083296;28;20509;-79
2022/10/08 02:48:41;;;;;;;5.30;4.72;;;16.90;96.70;;;;;;5080653;28;20047;-81
2022/10/08 02:51:14;;;;;;;6.22;4.97;;;16.90;96.70;;;;;;5080660;28;20127;-81
2022/10/08 02:53:44;;;;;;;6.45;5.53;;;16.90;96.70;;;;;;5078257;28;20101;-80
2022/10/08 02:56:17;;;;;;;8.70;5.13;;;16.80;96.70;;;;;;5082046;28;20413;-80
2022/10/08 02:58:46;;;;;;;5.50;4.82;;;16.80;96.70;;;;;;5076052;28;20056;-80
2022/10/08 03:01:25;;;;;;;5.47;4.78;;;16.70;96.70;;;;;;5083137;28;20128;-79
2022/10/08 03:03:59;;;;;;;4.72;4.32;;;16.70;96.70;;;;;;5078975;28;20047;-79
2022/10/08 03:06:29;;;;;;;6.88;4.55;;;16.70;96.70;;;;;;5082123;28;20073;-80
2022/10/08 03:08:59;;;;;;;6.72;4.38;;;16.70;96.70;;;;;;5082411;28;20509;-81
2022/10/08 03:11:29;;;;;;;8.20;4.80;;;16.70;96.70;;;;;;5081846;28;20394;-80
2022/10/08 03:14:01;;;;;;;5.78;4.30;;;16.70;96.70;;;;;;5081571;28;20059;-79
2022/10/08 03:16:39;;;;;;;5.38;4.18;;;16.70;96.70;;;;;;5081736;28;20183;-80
2022/10/08 03:19:10;;;;;;;7.28;4.97;;;16.70;96.70;;;;;;5098272;28;20044;-80
2022/10/08 03:21:42;;;;;;;5.15;4.30;;;16.70;96.70;;;;;;5076125;28;20040;-79
2022/10/08 03:24:13;;;;;;;7.20;4.80;;;16.70;96.70;;;;;;5078763;28;20041;-80
2022/10/08 03:26:42;;;;;;;6.15;4.25;;;16.70;96.70;;;;;;5078256;28;20094;-80
2022/10/08 03:29:10;;;;;;;6.20;4.40;;;16.70;96.70;;;;;;5082322;28;20082;-79
2022/10/08 03:31:42;;;;;;;6.50;4.75;;;16.70;96.70;;;;;;5085599;28;20071;-80
2022/10/08 03:34:12;;;;;;;5.70;5.13;;;16.70;96.70;;;;;;5068830;28;20458;-80
2022/10/08 03:36:40;;;;;;;5.93;4.47;;;16.70;96.70;;;;;;5103564;28;20058;-80
2022/10/08 03:39:10;;;;;;;5.80;4.43;;;16.60;96.70;;;;;;5068712;28;20051;-80
2022/10/08 03:41:39;;;;;;;5.35;4.63;;;16.50;96.70;;;;;;5086980;28;20044;-80
2022/10/08 03:44:09;;;;;;;7.90;4.88;;;16.40;96.70;;;;;;5063493;28;20497;-80
2022/10/08 03:46:38;;;;;;;5.90;4.30;;;16.40;96.70;;;;;;5084950;28;20741;-79
2022/10/08 03:49:07;;;;;;;4.55;4.15;;;16.30;96.70;;;;;;5084680;28;20406;-80
2022/10/08 03:51:36;;;;;;;7.43;4.47;;;16.30;96.70;;;;;;5086529;28;20509;-80
2022/10/08 03:54:04;;;;;;;8.52;4.40;;;16.30;96.70;;;;;;5084642;28;20048;-81
2022/10/08 03:56:33;;;;;;;5.55;3.90;;;16.30;96.70;;;;;;5084477;28;20036;-80
2022/10/08 03:59:02;;;;;;;8.27;4.22;;;16.30;96.70;;;;;;5084896;28;20040;-80
2022/10/08 04:01:31;;;;;;;6.50;4.43;;;16.30;96.70;;;;;;5085965;28;20044;-80
2022/10/08 04:03:59;;;;;;;4.95;3.85;;;16.30;96.70;;;;;;5081036;28;20516;-80
2022/10/08 04:06:29;;;;;;;6.30;4.20;;;16.30;96.70;;;;;;5086459;28;20134;-81
2022/10/08 04:08:59;;;;;;;5.20;4.20;;;16.30;96.70;;;;;;5086475;28;20156;-80
2022/10/08 04:11:28;;;;;;;11.45;5.05;;;16.30;96.70;;;;;;5085056;28;20080;-80
2022/10/08 04:13:56;;;;;;;5.60;4.32;;;16.20;96.70;;;;;;5085086;28;20036;-80
2022/10/08 04:16:24;;;;;;;4.55;4.05;;;16.20;96.70;;;;;;5078039;28;20067;-80
2022/10/08 04:18:52;;;;;;;7.18;4.45;;;16.10;96.70;;;;;;5084570;28;20096;-79
2022/10/08 04:21:21;;;;;;;4.35;3.85;;;16.20;96.70;;;;;;5086053;28;20105;-80
2022/10/08 04:23:50;;;;;;;5.88;4.50;;;16.20;96.70;;;;;;5086338;28;20130;-80
2022/10/08 04:26:19;;;;;;;6.53;4.60;;;16.10;96.70;;;;;;5084474;28;20138;-80
2022/10/08 04:28:47;;;;;;;4.75;4.22;;;16.10;96.70;;;;;;5067880;28;20037;-81
2022/10/08 04:31:17;;;;;;;4.75;4.25;;;16.10;96.70;;;;;;5086215;28;20036;-80
2022/10/08 04:33:46;;;;;;;4.95;4.40;;;16.30;96.70;;;;;;5087136;28;20116;-81
2022/10/08 04:36:16;;;;;;;5.78;4.45;;;16.30;96.70;;;;;;5095291;28;20117;-80
2022/10/08 04:38:45;;;;;;;5.85;4.20;;;16.30;96.70;;;;;;5085061;28;20048;-80
2022/10/08 04:41:16;;;;;;;5.72;4.10;;;16.20;96.70;;;;;;5067932;28;20366;-80
2022/10/08 04:43:45;;;;;;;5.65;4.43;;;16.10;96.70;;;;;;5085234;28;20047;-80
2022/10/08 04:46:16;;;;;;;5.15;4.65;;;16.10;96.70;;;;;;5085897;28;20616;-79
2022/10/08 04:48:49;;;;;;;6.07;4.63;;;16.10;96.70;;;;;;5081970;28;20052;-79
2022/10/08 04:51:18;;;;;;;5.45;4.00;;;16.10;96.70;;;;;;5065632;28;20067;-79
2022/10/08 04:53:46;;;;;;;5.30;4.30;;;16.10;96.70;;;;;;5083698;28;20481;-81
2022/10/08 04:56:17;;;;;;;5.47;4.78;;;16.10;96.70;;;;;;5071024;28;20473;-80
2022/10/08 04:58:46;;;;;;;5.13;3.92;;;16.20;96.70;;;;;;5083733;28;20047;-79
2022/10/08 05:01:16;;;;;;;5.47;3.90;;;16.10;96.70;;;;;;5081658;28;20044;-79
2022/10/08 05:03:46;;;;;;;6.57;4.43;;;16.10;96.70;;;;;;5086336;28;20523;-80
2022/10/08 05:06:16;;;;;;;4.72;4.18;;;16.10;96.70;;;;;;5084154;28;20048;-79
2022/10/08 05:08:45;;;;;;;6.32;3.80;;;16.20;96.70;;;;;;5077210;28;20048;-79
2022/10/08 05:11:16;;;;;;;6.40;3.70;;;16.10;96.70;;;;;;5099377;28;20085;-79
2022/10/08 05:13:48;;;;;;;5.55;4.20;;;16.10;96.70;;;;;;5079361;28;20041;-79
2022/10/08 05:16:17;;;;;;;6.60;4.05;;;16.10;96.70;;;;;;5083593;28;20040;-79
2022/10/08 05:18:46;;;;;;;5.25;4.28;;;16.10;96.70;;;;;;5101350;28;20044;-79
2022/10/08 05:21:16;;;;;;;5.03;4.53;;;16.10;96.70;;;;;;5082788;28;20097;-80
2022/10/08 05:23:45;;;;;;;7.38;4.63;;;16.10;96.70;;;;;;5081491;28;20058;-79
2022/10/08 05:26:16;;;;;;;7.18;5.07;;;16.00;96.70;;;;;;5069463;28;20630;-80
2022/10/08 05:28:46;;;;;;;6.93;5.45;;;16.00;96.70;;;;;;5082770;28;20448;-79
2022/10/08 05:31:14;;;;;;;6.55;5.47;;;16.00;96.70;;;;;;5085945;28;20109;-79
2022/10/08 05:33:43;;;;;;;9.52;6.10;;;15.90;96.70;;;;;;5083353;28;20452;-81
2022/10/08 05:36:15;;;;;;;8.48;5.78;;;15.90;96.70;;;;;;5085439;28;20114;-85
2022/10/08 05:38:44;;;;;;;13.30;6.57;;;15.90;96.70;;;;;;5083744;28;20097;-84
2022/10/08 05:41:13;;;;;;;12.38;7.35;;;15.90;96.70;;;;;;5086260;28;20051;-82
2022/10/08 05:43:44;;;;;;;10.35;6.65;;;15.90;96.70;;;;;;5070424;28;20052;-85
2022/10/08 05:46:13;;;;;;;10.07;6.47;;;15.90;96.70;;;;;;5087363;28;20044;-82
2022/10/08 05:48:42;;;;;;;10.25;6.30;;;15.90;96.70;;;;;;5088234;28;20055;-84
2022/10/08 05:51:12;;;;;;;9.77;6.35;;;15.90;96.70;;;;;;5087031;28;20052;-85
2022/10/08 05:53:42;;;;;;;7.07;6.00;;;15.90;96.70;;;;;;5088279;28;20052;-87
2022/10/08 05:56:12;;;;;;;8.52;6.05;;;15.90;96.70;;;;;;5072429;28;20048;-83
2022/10/08 05:58:43;;;;;;;10.63;6.03;;;16.00;96.70;;;;;;5079767;28;20045;-81
2022/10/08 06:01:14;;;;;;;7.28;5.03;;;16.00;96.70;;;;;;5082188;28;20070;-81
2022/10/08 06:03:43;;;;;;;8.27;5.68;;;16.00;96.70;;;;;;5068230;28;20052;-81
2022/10/08 06:06:11;;;;;;;7.32;4.90;;;15.90;96.70;;;;;;5080560;28;20127;-82
2022/10/08 06:08:40;;;;;;;7.82;5.00;;;15.90;96.70;;;;;;5079596;28;20127;-81
2022/10/08 06:11:08;;;;;;;9.10;5.38;;;15.80;96.70;;;;;;5078454;28;20560;-80
2022/10/08 06:13:36;;;;;;;7.53;5.72;;;15.80;96.70;;;;;;5080675;28;20040;-81
2022/10/08 06:16:08;;;;;;;6.32;5.63;;;15.80;96.70;;;;;;5077951;28;20064;-81
2022/10/08 06:18:39;;;;;;;9.20;7.13;;;15.80;96.70;;;;;;5084715;28;20409;-81
2022/10/08 06:21:08;;;;;;;22.00;13.50;;;15.80;96.70;;;;;;5069047;28;20050;-82
2022/10/08 06:23:39;;;;;;;14.57;10.20;;;15.80;96.70;;;;;;5085949;28;20156;-82
2022/10/08 06:26:09;;;;;;;7.28;6.57;;;15.80;96.70;;;;;;5086107;28;20097;-84
2022/10/08 06:28:38;;;;;;;8.80;6.35;;;15.80;96.70;;;;;;5084185;28;20143;-80
2022/10/08 06:31:08;;;;;;;24.20;19.80;;;15.70;96.70;;;;;;5082909;28;20044;-80
2022/10/08 06:33:36;;;;;;;14.48;9.07;;;15.80;96.70;;;;;;5078767;28;20454;-79
2022/10/08 06:36:06;;;;;;;15.23;10.38;;;15.90;96.70;;;;;;5082192;28;20035;-81
2022/10/08 06:38:35;;;;;;;17.02;9.10;;;15.90;96.70;;;;;;5081913;28;20040;-79
2022/10/08 06:41:03;;;;;;;11.98;9.38;;;15.90;96.70;;;;;;5079794;28;20043;-80
2022/10/08 06:43:32;;;;;;;13.10;9.57;;;15.90;96.70;;;;;;5078352;28;20109;-80
2022/10/08 06:46:03;;;;;;;11.85;9.98;;;15.90;96.70;;;;;;5077736;28;20088;-80
2022/10/08 06:48:33;;;;;;;10.95;9.50;;;15.90;96.70;;;;;;5083816;28;20044;-80
2022/10/08 06:51:04;;;;;;;19.25;10.90;;;16.00;96.70;;;;;;5083842;28;20076;-81
2022/10/08 06:53:33;;;;;;;11.20;8.98;;;16.00;96.70;;;;;;5083027;28;20052;-80
2022/10/08 06:56:03;;;;;;;13.20;9.18;;;16.00;96.70;;;;;;5080380;28;20490;-81
2022/10/08 06:58:33;;;;;;;15.07;8.48;;;16.10;96.70;;;;;;5080143;28;20079;-80
2022/10/08 07:01:03;;;;;;;12.23;8.52;;;16.10;96.70;;;;;;5098048;28;20131;-81
2022/10/08 07:03:34;;;;;;;10.38;8.57;;;16.10;96.70;;;;;;5066160;28;20497;-80
2022/10/08 07:06:05;;;;;;;15.27;9.23;;;16.00;96.70;;;;;;5081531;28;20055;-81
2022/10/08 07:08:34;;;;;;;11.52;8.95;;;16.10;96.70;;;;;;5080006;28;20075;-80
2022/10/08 07:11:04;;;;;;;13.30;9.70;;;16.20;96.70;;;;;;5078955;28;20451;-80
2022/10/08 07:13:33;;;;;;;11.55;10.13;;;16.30;96.70;;;;;;5079219;28;20410;-80
2022/10/08 07:16:02;;;;;;;17.77;12.43;;;16.20;96.70;;;;;;5081783;28;20694;-81
2022/10/08 07:18:32;;;;;;;15.57;12.10;;;16.10;96.70;;;;;;5082601;28;20058;-83
2022/10/08 07:21:01;;;;;;;17.83;11.48;;;16.10;96.70;;;;;;5085333;28;20047;-82
2022/10/08 07:23:29;;;;;;;16.75;12.20;;;16.20;96.70;;;;;;5075288;28;20040;-82
2022/10/08 07:25:59;;;;;;;16.50;11.65;;;16.20;96.70;;;;;;5079964;28;20102;-82
2022/10/08 07:28:30;;;;;;;15.25;11.38;;;16.20;96.70;;;;;;5061128;28;20048;-81
2022/10/08 07:31:03;;;;;;;13.15;9.07;;;16.20;96.70;;;;;;5085337;28;20047;-82
2022/10/08 07:33:33;;;;;;;10.98;8.93;;;16.30;96.70;;;;;;5084557;28;20114;-82
2022/10/08 07:36:08;;;;;;;14.02;9.40;;;16.30;96.70;;;;;;5087089;28;20040;-84
2022/10/08 07:38:37;;;;;;;14.73;9.23;;;16.30;96.70;;;;;;5079497;28;20148;-82
2022/10/08 07:41:05;;;;;;;13.20;9.30;;;16.40;96.70;;;;;;5077758;28;20717;-82
2022/10/08 07:43:34;;;;;;;10.43;8.07;;;16.40;96.70;;;;;;5084986;28;20048;-81
2022/10/08 07:46:05;;;;;;;11.75;7.97;;;16.50;96.70;;;;;;5083595;28;20575;-82
2022/10/08 07:48:35;;;;;;;10.60;8.25;;;16.60;96.70;;;;;;5084302;28;20059;-81
2022/10/08 07:51:08;;;;;;;62.47;46.63;;;16.60;96.70;;;;;;5083628;28;20044;-82
2022/10/08 07:53:37;;;;;;;22.20;18.58;;;16.70;96.70;;;;;;5084003;28;21329;-82
2022/10/08 07:56:07;;;;;;;21.00;15.57;;;16.80;96.70;;;;;;5085656;28;20109;-82
2022/10/08 07:58:36;;;;;;;14.23;11.65;;;16.70;96.70;;;;;;5081749;28;20056;-82
2022/10/08 08:01:06;;;;;;;14.82;11.77;;;16.80;96.70;;;;;;5085148;28;20062;-80
2022/10/08 08:03:36;;;;;;;17.85;10.77;;;16.90;96.70;;;;;;5075282;28;20547;-80
2022/10/08 08:06:08;;;;;;;14.57;9.98;;;17.00;96.70;;;;;;5084470;28;20036;-86
2022/10/08 08:08:38;;;;;;;15.27;9.88;;;16.90;96.70;;;;;;5068504;28;20048;-86
2022/10/08 08:11:08;;;;;;;13.23;9.55;;;16.90;96.70;;;;;;5087613;28;20513;-85
2022/10/08 08:13:38;;;;;;;10.13;8.55;;;17.00;96.70;;;;;;5086567;28;20131;-86
2022/10/08 08:16:09;;;;;;;11.82;8.93;;;17.20;96.70;;;;;;5085405;28;20083;-86
2022/10/08 08:18:40;;;;;;;11.73;8.77;;;17.20;96.70;;;;;;5088969;28;20473;-86
2022/10/08 08:21:10;;;;;;;11.00;8.23;;;17.40;96.70;;;;;;5089328;28;20048;-85
2022/10/08 08:23:40;;;;;;;9.20;7.43;;;17.50;96.70;;;;;;5105973;28;20051;-86
2022/10/08 08:26:11;;;;;;;8.10;6.63;;;17.60;96.70;;;;;;5090338;28;20735;-85
2022/10/08 08:28:39;;;;;;;9.43;7.53;;;17.70;96.70;;;;;;5082516;28;20058;-85
2022/10/08 08:31:09;;;;;;;10.13;7.93;;;17.80;96.70;;;;;;5088479;28;20102;-83
2022/10/08 08:33:40;;;;;;;9.85;7.47;;;17.90;96.70;;;;;;5076676;28;20105;-86
2022/10/08 08:36:09;;;;;;;12.48;8.43;;;18.10;96.70;;;;;;5072418;28;20413;-85
2022/10/08 08:38:38;;;;;;;11.43;9.38;;;18.20;96.70;;;;;;5090984;28;20052;-86
2022/10/08 08:41:14;;;;;;;11.27;9.15;;;18.40;96.70;;;;;;5090307;28;20047;-86
2022/10/08 08:43:47;;;;;;;11.32;9.63;;;18.40;96.70;;;;;;5089024;28;20125;-86
2022/10/08 08:46:20;;;;;;;12.57;9.13;;;18.50;96.70;;;;;;5084554;28;20029;-85
2022/10/08 08:48:53;;;;;;;10.45;8.85;;;18.60;96.70;;;;;;5070991;28;20084;-83
2022/10/08 08:51:21;;;;;;;13.73;10.00;;;18.70;96.70;;;;;;5072200;28;20052;-83
2022/10/08 08:53:49;;;;;;;13.15;9.98;;;18.80;96.70;;;;;;5070931;28;20048;-84
2022/10/08 08:56:20;;;;;;;10.43;9.40;;;18.80;96.70;;;;;;5072305;28;20083;-83
2022/10/08 08:58:57;;;;;;;12.52;9.38;;;18.90;96.70;;;;;;5082331;28;20050;-78
2022/10/08 09:01:32;;;;;;;31.65;28.05;;;18.90;96.70;;;;;;5084013;28;20163;-77
2022/10/08 09:04:08;;;;;;;14.40;10.98;;;19.00;96.70;;;;;;5084047;28;20054;-78
2022/10/08 09:06:36;;;;;;;;;;;19.20;96.70;;;;;;5081020;28;20051;-77
2022/10/08 09:09:16;;;;;;;12.13;10.20;;;19.30;96.70;;;;;;5061571;28;19967;-77
2022/10/08 09:11:45;;;;;;;12.90;10.55;;;19.40;96.70;;;;;;5085251;28;20040;-76
2022/10/08 09:14:27;;;;;;;12.18;10.60;;;19.50;96.70;;;;;;5084848;28;20093;-77
2022/10/08 09:16:56;;;;;;;12.82;11.27;;;19.50;96.70;;;;;;5084776;28;20059;-76
2022/10/08 09:19:26;;;;;;;12.50;10.60;;;19.60;96.70;;;;;;5083090;28;20048;-75
2022/10/08 09:21:54;;;;;;;11.80;10.10;;;19.60;96.70;;;;;;5086087;28;20097;-76
2022/10/08 09:24:24;;;;;;;13.40;11.40;;;19.70;96.70;;;;;;5083428;28;20048;-77
2022/10/08 09:26:52;;;;;;;12.48;10.63;;;19.90;96.70;;;;;;5067614;28;20587;-76
2022/10/08 09:29:32;;;;;;;12.55;10.65;;;20.00;96.70;;;;;;5082830;28;20127;-77
2022/10/08 09:32:00;;;;;;;13.30;11.07;;;20.00;96.70;;;;;;5084524;28;20418;-77
2022/10/08 09:34:36;;;;;;;12.90;11.50;;;20.10;96.70;;;;;;5079459;28;20048;-79
2022/10/08 09:37:11;;;;;;;16.20;11.48;;;20.10;96.70;;;;;;5084016;28;20047;-76
2022/10/08 09:40:00;;;;;;;17.58;11.60;;;20.20;96.70;;;;;;5083528;28;20071;-77
2022/10/08 09:42:28;;;;;;;13.60;11.45;;;20.50;96.70;;;;;;5081409;28;20052;-76
2022/10/08 09:45:02;;;;;;;14.30;12.02;;;20.60;96.70;;;;;;5099854;28;20122;-77
2022/10/08 09:47:32;;;;;;;13.57;12.18;;;20.50;96.70;;;;;;5081531;28;20502;-76
2022/10/08 09:50:05;;;;;;;12.52;11.20;;;20.60;96.70;;;;;;5076241;28;20051;-76
2022/10/08 09:52:35;;;;;;;13.27;11.30;;;20.60;96.70;;;;;;5071208;28;20097;-79
2022/10/08 09:55:08;;;;;;;13.65;11.43;;;20.70;96.70;;;;;;5084736;28;20040;-78
2022/10/08 09:57:42;;;;;;;14.23;11.25;;;20.70;96.70;;;;;;5072608;28;20048;-77
2022/10/08 10:00:24;;;;;;;126.57;112.43;;;20.70;96.70;;;;;;5083920;28;20044;-76
2022/10/08 10:02:54;;;;;;;40.72;33.90;;;20.90;96.70;;;;;;5083584;28;20134;-80
2022/10/08 10:05:26;;;;;;;18.77;16.27;;;21.00;96.70;;;;;;5078157;28;20048;-78
2022/10/08 10:07:54;;;;;;;18.33;13.90;;;21.00;96.70;;;;;;5078415;28;20044;-79
2022/10/08 10:10:27;;;;;;;16.40;14.38;;;21.20;96.70;;;;;;5084586;28;20365;-80
2022/10/08 10:13:00;;;;;;;12.52;10.65;;;21.20;96.70;;;;;;5082703;28;20143;-79
2022/10/08 10:15:33;;;;;;;13.43;11.95;;;21.20;96.70;;;;;;5067386;28;20151;-80
2022/10/08 10:18:10;;;;;;;13.95;12.23;;;21.20;96.70;;;;;;5068283;28;20460;-78
2022/10/08 10:20:43;;;;;;;14.23;11.45;;;21.20;96.70;;;;;;5078516;28;20036;-77
2022/10/08 10:23:14;;;;;;;16.48;12.00;;;21.30;96.70;;;;;;5083686;28;20044;-78
2022/10/08 10:25:46;;;;;;;13.20;11.07;;;21.30;96.70;;;;;;5082322;28;20143;-80
2022/10/08 10:28:25;;;;;;;13.02;11.65;;;21.40;96.70;;;;;;5084391;28;20048;-82
2022/10/08 10:30:58;;;;;;;17.38;12.25;;;21.60;96.70;;;;;;5073149;28;20048;-79
2022/10/08 10:33:31;;;;;;;21.95;16.55;;;21.70;96.70;;;;;;5081444;28;20131;-80
2022/10/08 10:36:06;;;;;;;14.48;11.95;;;22.00;96.70;;;;;;5080508;28;20048;-80
2022/10/08 10:38:38;;;;;;;13.20;11.10;;;22.00;96.70;;;;;;5082111;28;20051;-82
2022/10/08 10:41:16;;;;;;;12.77;11.43;;;22.10;96.70;;;;;;5080037;28;20051;-81
2022/10/08 10:43:52;;;;;;;14.80;11.75;;;22.20;96.70;;;;;;5075069;28;20284;-81
2022/10/08 10:46:30;;;;;;;14.45;10.48;;;22.20;96.70;;;;;;5080468;28;20548;-78
2022/10/08 10:48:58;;;;;;;16.05;11.40;;;22.30;96.70;;;;;;5079494;28;20044;-81
2022/10/08 10:51:43;;;;;;;15.15;11.50;;;22.40;96.70;;;;;;5080936;28;20046;-82
2022/10/08 10:54:27;;;;;;;12.05;10.20;;;22.40;96.70;;;;;;5061915;28;20444;-81
2022/10/08 10:57:00;;;;;;;12.77;10.70;;;22.60;96.70;;;;;;5081813;28;20147;-81
2022/10/08 10:59:43;;;;;;;15.05;10.45;;;22.70;96.70;;;;;;5084672;28;20118;-81
2022/10/08 11:02:19;;;;;;;13.52;10.15;;;23.00;96.70;;;;;;5083112;28;20056;-81
2022/10/08 11:04:59;;;;;;;12.85;10.13;;;22.90;96.70;;;;;;5084930;28;20048;-81
2022/10/08 11:07:57;;;;;;;8.15;7.05;;;22.80;96.70;;;;;;5083322;28;20044;-80
2022/10/08 11:10:37;;;;;;;8.25;6.07;;;22.90;96.70;;;;;;5079687;28;20044;-81
2022/10/08 11:13:20;;;;;;;10.57;7.13;;;23.20;96.70;;;;;;5084531;28;20485;-81
2022/10/08 11:15:58;;;;;;;7.50;6.40;;;23.20;96.70;;;;;;5083371;28;20044;-80
2022/10/08 11:18:38;;;;;;;9.07;6.63;;;23.20;96.70;;;;;;5085056;28;20091;-80
2022/10/08 11:21:17;;;;;;;8.20;6.20;;;23.20;96.70;;;;;;5062826;28;20106;-82
2022/10/08 11:24:06;;;;;;;10.27;8.05;;;23.40;96.70;;;;;;5081458;28;20048;-80
2022/10/08 11:26:39;;;;;;;9.05;7.95;;;23.50;96.70;;;;;;5082952;28;20040;-80
2022/10/08 11:29:16;;;;;;;11.68;8.13;;;23.50;96.70;;;;;;5080841;28;20043;-81
2022/10/08 11:31:47;;;;;;;9.75;7.10;;;23.50;96.70;;;;;;5062882;28;20045;-81
2022/10/08 11:34:21;;;;;;;7.18;6.38;;;23.50;96.70;;;;;;5079481;28;20044;-81
2022/10/08 11:37:07;;;;;;;10.57;8.95;;;23.60;96.70;;;;;;5085141;28;20042;-82
2022/10/08 11:39:44;;;;;;;8.40;6.47;;;23.70;96.70;;;;;;5083100;28;20044;-81
2022/10/08 11:42:22;;;;;;;7.00;5.35;;;23.90;96.70;;;;;;5084425;28;20036;-81
2022/10/08 11:44:51;;;;;;;7.15;5.18;;;24.00;96.70;;;;;;5083150;28;20512;-81
2022/10/08 11:47:49;;;;;;;7.82;4.63;;;24.00;96.70;;;;;;5083970;28;20040;-81
2022/10/08 11:50:26;;;;;;;55.70;7.57;;;24.20;96.70;;;;;;5082946;28;20121;-82
2022/10/08 11:52:58;;;;;;;7.43;5.00;;;24.40;96.70;;;;;;5090067;28;20036;-83
2022/10/08 11:55:31;;;;;;;5.65;4.90;;;24.60;96.70;;;;;;5085979;28;20122;-81
2022/10/08 11:58:02;;;;;;;5.93;4.82;;;24.60;96.70;;;;;;5086795;28;20041;-85
2022/10/08 12:00:40;;;;;;;6.45;4.95;;;24.70;96.70;;;;;;5089853;28;20101;-85
2022/10/08 12:03:21;;;;;;;6.78;4.40;;;24.80;96.70;;;;;;5082047;28;20049;-84
2022/10/08 12:05:53;;;;;;;4.82;4.40;;;24.80;96.70;;;;;;5068564;28;20183;-85
2022/10/08 12:09:03;;;;;;;9.43;5.07;;;24.90;96.70;;;;;;5087233;28;20048;-85
2022/10/08 12:11:51;;;;;;;6.47;4.57;;;24.80;96.70;;;;;;5058381;28;20044;-83
2022/10/08 12:14:30;;;;;;;8.40;4.30;;;25.00;96.70;;;;;;5081860;28;20083;-78
2022/10/08 12:17:08;;;;;;;4.75;4.13;;;25.10;96.70;;;;;;5083913;28;20105;-84
2022/10/08 12:20:01;;;;;;;4.70;4.20;;;25.20;96.70;;;;;;5090579;28;20044;-84
2022/10/08 12:22:56;;;;;;;5.57;4.03;;;25.40;96.70;;;;;;5064941;28;20060;-83
2022/10/08 12:25:34;;;;;;;4.38;3.85;;;25.50;96.70;;;;;;5070239;28;20044;-83
2022/10/08 12:28:50;;;;;;;7.15;4.38;;;25.70;96.70;;;;;;5088683;28;20048;-85
2022/10/08 12:31:27;;;;;;;5.85;3.85;;;25.80;96.70;;;;;;5088637;28;20052;-86
2022/10/08 12:34:02;;;;;;;5.93;3.78;;;26.00;96.70;;;;;;5088758;28;20481;-85
2022/10/08 12:36:46;;;;;;;4.00;3.58;;;26.00;96.70;;;;;;5078437;28;20502;-85
2022/10/08 12:39:22;;;;;;;4.65;3.50;;;25.90;96.70;;;;;;5090141;28;20036;-84
2022/10/08 12:42:00;;;;;;;4.40;3.92;;;25.90;96.70;;;;;;5058453;28;20052;-84
2022/10/08 12:44:39;;;;;;;5.13;4.32;;;25.80;96.70;;;;;;5090539;28;20040;-84
2022/10/08 12:47:21;;;;;;;4.47;3.50;;;25.70;96.70;;;;;;5071938;28;20051;-84
2022/10/08 12:49:56;;;;;;;5.00;3.70;;;25.70;96.70;;;;;;5067017;28;20052;-87
2022/10/08 12:52:31;;;;;;;;;;;25.80;96.70;;;;;;5089522;28;20068;-87
2022/10/08 12:55:02;;;;;;;5.25;3.60;;;25.90;96.70;;;;;;5089476;28;19976;-86
2022/10/08 12:57:33;;;;;;;5.22;3.65;;;26.00;96.70;;;;;;5089129;28;20109;-85
2022/10/08 13:00:07;;;;;;;4.70;3.78;;;26.00;96.70;;;;;;5080044;28;20067;-84
2022/10/08 13:02:39;;;;;;;4.60;4.15;;;26.10;96.70;;;;;;5080100;28;20564;-79
2022/10/08 13:05:24;;;;;;;5.60;3.60;;;26.30;96.70;;;;;;5087003;28;20548;-80
2022/10/08 13:07:53;;;;;;;7.03;3.97;;;26.10;96.70;;;;;;5082385;28;20044;-78
2022/10/08 13:10:24;;;;;;;5.07;3.80;;;26.10;96.70;;;;;;5086601;28;20044;-84